Time;durP1;ratioP1;P1;durP2;ratioP2;P2;SDS_P1;SDS_P2;PMS_P1;PMS_P2;Temp;Humidity;BMP_temperature;BMP_pressure;BME280_temperature;BME280_humidity;BME280_pressure;Samples;Min_cycle;Max_cycle;Signal;HPM_P1;HPM_P2
2022/01/15 00:00:50;;;;;;;3.03;2.83;;;;;;;3.28;83.41;102701.59;5119060;28;20045;-82
2022/01/15 00:03:20;;;;;;;;;;;;;;;3.47;82.37;102697.94;5144210;28;20631;-81
2022/01/15 00:05:51;;;;;;;2.95;2.47;;;;;;;3.32;83.43;102703.50;5152016;28;19918;-82
2022/01/15 00:08:23;;;;;;;16.00;3.40;;;;;;;3.49;82.60;102700.59;5124564;28;20101;-82
2022/01/15 00:10:56;;;;;;;6.72;5.47;;;;;;;3.09;83.75;102706.16;5120325;28;20073;-83
2022/01/15 00:13:31;;;;;;;10.13;4.20;;;;;;;2.74;85.47;102708.34;5136662;28;20027;-81
2022/01/15 00:16:09;;;;;;;4.45;3.92;;;;;;;2.80;85.19;102705.97;5120146;28;20053;-83
2022/01/15 00:18:47;;;;;;;4.65;4.25;;;;;;;2.90;85.40;102708.91;5127322;28;20061;-83
2022/01/15 00:21:18;;;;;;;1.95;1.85;;;;;;;2.77;86.72;102708.44;5121210;28;20530;-81
2022/01/15 00:23:52;;;;;;;3.45;3.25;;;;;;;2.76;85.70;102708.38;5143081;28;20034;-83
2022/01/15 00:26:22;;;;;;;2.47;2.28;;;;;;;3.02;84.25;102704.16;5158487;28;20087;-83
2022/01/15 00:28:54;;;;;;;0.98;0.98;;;;;;;3.11;83.41;102709.66;5153434;28;20022;-83
2022/01/15 00:31:27;;;;;;;4.93;3.10;;;;;;;3.19;83.31;102698.69;5123258;28;20051;-82
2022/01/15 00:33:58;;;;;;;15.40;4.88;;;;;;;3.35;82.54;102702.72;5122547;28;20085;-82
2022/01/15 00:36:29;;;;;;;2.63;2.42;;;;;;;3.39;82.40;102700.28;5130740;28;20070;-82
2022/01/15 00:39:02;;;;;;;5.32;3.53;;;;;;;3.49;81.94;102700.59;5144823;28;20026;-84
2022/01/15 00:41:33;;;;;;;2.45;2.35;;;;;;;3.31;83.18;102704.31;5119633;28;20417;-82
2022/01/15 00:44:06;;;;;;;7.18;6.55;;;;;;;3.33;82.76;102699.16;5125695;28;20034;-82
2022/01/15 00:46:37;;;;;;;4.78;4.38;;;;;;;2.79;84.60;102704.19;5124204;28;20045;-83
2022/01/15 00:49:15;;;;;;;4.85;2.97;;;;;;;3.02;84.38;102698.97;5148507;28;20023;-84
2022/01/15 00:51:46;;;;;;;2.28;2.17;;;;;;;3.12;83.50;102695.00;5138928;28;20697;-83
2022/01/15 00:54:16;;;;;;;3.75;3.50;;;;;;;2.91;83.62;102689.94;5135718;28;20034;-84
2022/01/15 00:56:49;;;;;;;1.48;1.42;;;;;;;3.11;83.75;102683.72;5166109;28;20125;-84
2022/01/15 00:59:25;;;;;;;5.30;2.45;;;;;;;2.88;84.26;102685.53;5130612;28;20064;-83
2022/01/15 01:01:59;;;;;;;2.17;2.08;;;;;;;2.86;84.12;102681.06;5139591;28;20042;-83
2022/01/15 01:04:54;;;;;;;1.25;1.25;;;;;;;2.70;84.28;102687.44;5159498;28;20042;-83
2022/01/15 01:07:25;;;;;;;2.45;2.35;;;;;;;2.61;85.54;102680.19;5125134;28;20563;-81
2022/01/15 01:10:12;;;;;;;1.75;1.70;;;;;;;2.80;84.36;102669.66;5129313;28;20022;-83
2022/01/15 01:23:26;;;;;;;2.08;1.98;;;;;;;2.50;85.58;102662.53;5153697;28;20808;-82
2022/01/15 01:26:11;;;;;;;3.10;2.90;;;;;;;2.45;85.60;102658.00;5121974;28;20035;-84
2022/01/15 01:28:45;;;;;;;2.78;2.58;;;;;;;2.50;85.03;102659.94;5124666;28;20643;-83
2022/01/15 01:31:25;;;;;;;1.27;1.27;;;;;;;2.61;84.93;102669.81;5153776;28;20405;-82
2022/01/15 01:34:05;;;;;;;2.13;1.98;;;;;;;2.75;83.42;102658.25;5152885;28;20029;-83
2022/01/15 01:36:52;;;;;;;2.65;2.45;;;;;;;2.72;83.15;102657.28;5124215;28;20045;-84
2022/01/15 01:39:36;;;;;;;4.15;2.92;;;;;;;2.72;84.03;102652.94;5140053;28;20102;-84
2022/01/15 01:42:32;;;;;;;2.75;2.55;;;;;;;2.88;83.32;102645.72;5122659;28;20034;-81
2022/01/15 01:45:14;;;;;;;1.50;1.40;;;;;;;2.64;84.07;102649.19;5124987;28;20026;-82
2022/01/15 01:47:47;;;;;;;3.30;3.00;;;;;;;2.65;84.48;102645.78;5140860;28;20297;-81
2022/01/15 01:50:23;;;;;;;1.75;1.65;;;;;;;2.86;83.03;102644.78;5141384;28;20758;-82
2022/01/15 01:52:57;;;;;;;1.95;1.85;;;;;;;2.76;83.24;102630.63;5124957;28;20057;-84
2022/01/15 01:55:29;;;;;;;2.65;2.45;;;;;;;2.66;84.14;102639.78;5123385;28;20080;-81
2022/01/15 01:58:00;;;;;;;4.72;2.50;;;;;;;2.72;83.52;102627.03;5126045;28;20117;-82
2022/01/15 02:00:31;;;;;;;3.00;2.78;;;;;;;2.41;85.78;102628.50;5141517;28;20057;-83
2022/01/15 02:03:01;;;;;;;1.27;1.23;;;;;;;2.29;85.68;102630.63;5143963;28;20022;-82
2022/01/15 02:05:32;;;;;;;1.05;1.05;;;;;;;2.41;85.94;102628.50;5121802;28;20045;-82
2022/01/15 02:08:03;;;;;;;1.75;1.65;;;;;;;2.48;85.12;102617.53;5154744;28;20034;-83
2022/01/15 02:10:34;;;;;;;4.00;3.67;;;;;;;2.25;85.82;102618.38;5150458;28;20058;-82
2022/01/15 02:13:08;;;;;;;8.52;2.95;;;;;;;2.39;85.15;102609.41;5149597;28;20481;-84
2022/01/15 02:15:41;;;;;;;1.65;1.60;;;;;;;2.46;84.43;102613.13;5130707;28;20038;-84
2022/01/15 02:18:14;;;;;;;1.33;1.30;;;;;;;2.25;84.69;102614.06;5172936;28;20338;-83
2022/01/15 02:23:33;;;;;;;1.40;1.38;;;;;;;2.18;85.98;102606.91;5144087;28;20106;-85
2022/01/15 02:26:07;;;;;;;;;;;;;;;2.23;85.68;102610.56;5131755;28;20102;-82
2022/01/15 02:28:42;;;;;;;1.88;1.77;;;;;;;2.13;86.32;102614.50;5143368;28;19909;-84
2022/01/15 02:31:15;;;;;;;2.03;1.93;;;;;;;2.05;87.10;102608.13;5133582;28;20035;-80
2022/01/15 02:33:49;;;;;;;3.00;2.75;;;;;;;2.11;85.85;102603.19;5125650;28;20059;-82
2022/01/15 02:36:28;;;;;;;;;;;;;;;2.36;84.09;102601.53;5122105;28;20050;-83
2022/01/15 02:38:59;;;;;;;0.80;0.80;;;;;;;2.06;86.72;102602.16;5143903;28;19913;-82
2022/01/15 02:41:35;;;;;;;2.80;2.63;;;;;;;2.22;85.82;102602.72;5140866;28;20030;-83
2022/01/15 02:44:16;;;;;;;1.45;1.35;;;;;;;1.98;86.01;102598.38;5131983;28;20022;-81
2022/01/15 02:49:20;;;;;;;2.42;2.22;;;;;;;2.41;84.72;102597.41;5128459;28;20088;-83
2022/01/15 02:51:50;;;;;;;2.65;2.45;;;;;;;2.49;84.50;102603.75;5132343;28;20042;-84
2022/01/15 02:54:21;;;;;;;5.93;4.40;;;;;;;2.50;83.85;102592.56;5148154;28;20022;-84
2022/01/15 02:56:56;;;;;;;1.48;1.40;;;;;;;2.42;83.89;102585.31;5128185;28;20042;-84
2022/01/15 02:59:29;;;;;;;2.03;1.92;;;;;;;2.51;84.02;102593.44;5130609;28;20030;-83
2022/01/15 03:02:00;;;;;;;1.30;1.30;;;;;;;2.62;83.76;102588.63;5126910;28;20042;-82
2022/01/15 03:04:30;;;;;;;2.03;1.92;;;;;;;2.68;83.23;102588.88;5143256;28;20018;-83
2022/01/15 03:07:01;;;;;;;2.58;2.38;;;;;;;2.67;83.11;102577.63;5122658;28;20046;-82
2022/01/15 03:09:32;;;;;;;1.35;1.35;;;;;;;2.76;82.83;102576.19;5142076;28;20139;-83
2022/01/15 03:12:03;;;;;;;1.05;1.05;;;;;;;2.51;84.41;102575.31;5126091;28;20821;-83
2022/01/15 03:14:34;;;;;;;1.88;1.77;;;;;;;2.67;83.45;102571.56;5140270;28;20036;-83
2022/01/15 03:17:05;;;;;;;2.03;1.95;;;;;;;2.70;82.87;102563.00;5123058;28;20562;-84
2022/01/15 03:19:35;;;;;;;1.15;1.15;;;;;;;2.47;83.36;102563.94;5138998;28;20034;-83
2022/01/15 03:22:09;;;;;;;1.73;1.63;;;;;;;2.69;83.30;102564.69;5121657;28;20041;-82
2022/01/15 03:24:41;;;;;;;1.35;1.27;;;;;;;2.73;83.30;102560.53;5122498;28;20061;-83
2022/01/15 03:27:11;;;;;;;1.40;1.35;;;;;;;2.76;83.19;102569.28;5112621;28;20078;-83
2022/01/15 03:29:46;;;;;;;1.17;1.17;;;;;;;2.74;83.33;102560.56;5148297;28;20027;-82
2022/01/15 03:32:20;;;;;;;2.88;1.20;;;;;;;2.74;83.47;102550.22;5118836;28;20046;-81
2022/01/15 03:34:51;;;;;;;1.67;1.58;;;;;;;2.77;82.85;102552.03;5137781;28;20030;-81
2022/01/15 03:37:25;;;;;;;3.25;3.05;;;;;;;2.83;82.86;102544.44;5074797;28;20114;-81
2022/01/15 03:39:55;;;;;;;1.92;1.83;;;;;;;2.81;83.08;102548.72;5139970;28;20038;-80
2022/01/15 03:42:27;;;;;;;2.65;2.45;;;;;;;2.90;83.60;102537.78;5139923;28;20073;-82
2022/01/15 03:44:57;;;;;;;1.00;1.00;;;;;;;2.89;82.83;102536.91;5140457;28;20058;-81
2022/01/15 03:47:28;;;;;;;0.38;0.38;;;;;;;2.88;82.87;102529.94;5138659;28;20073;-83
2022/01/15 03:50:08;;;;;;;1.73;1.63;;;;;;;2.94;83.04;102518.88;5120975;28;20041;-81
2022/01/15 03:52:39;;;;;;;2.00;1.85;;;;;;;2.95;83.06;102531.00;5122990;28;20095;-83
2022/01/15 03:55:11;;;;;;;1.80;1.73;;;;;;;3.02;82.59;102522.59;5123343;28;20062;-83
2022/01/15 03:57:42;;;;;;;3.65;3.40;;;;;;;2.91;83.16;102523.97;5116567;28;20043;-83
2022/01/15 04:00:24;;;;;;;1.08;1.08;;;;;;;2.92;82.96;102525.75;5111690;28;20066;-81
2022/01/15 04:02:56;;;;;;;2.97;2.78;;;;;;;2.97;82.84;102506.91;5131465;28;20050;-83
2022/01/15 04:05:31;;;;;;;0.93;0.93;;;;;;;2.95;83.18;102511.16;5122304;28;20030;-83
2022/01/15 04:08:02;;;;;;;2.72;2.53;;;;;;;2.79;83.31;102512.34;5126402;28;20030;-83
2022/01/15 04:10:32;;;;;;;3.65;2.90;;;;;;;2.67;84.02;102507.63;5131575;28;20118;-82
2022/01/15 04:13:03;;;;;;;1.98;1.88;;;;;;;2.81;83.55;102502.91;5140432;28;20050;-80
2022/01/15 04:15:35;;;;;;;2.58;2.20;;;;;;;2.89;83.04;102497.09;5117148;28;20043;-83
2022/01/15 04:18:06;;;;;;;1.70;1.60;;;;;;;2.76;83.84;102494.13;5139857;28;20083;-83
2022/01/15 04:20:36;;;;;;;1.98;1.88;;;;;;;2.76;82.81;102494.13;5128827;28;20062;-83
2022/01/15 04:23:11;;;;;;;2.28;2.15;;;;;;;2.87;83.32;102484.09;5125414;28;20026;-82
2022/01/15 04:25:42;;;;;;;2.08;1.98;;;;;;;2.85;83.40;102487.47;5123741;28;20061;-81
2022/01/15 04:28:13;;;;;;;3.83;2.70;;;;;;;2.87;83.22;102488.38;5124921;28;20034;-82
2022/01/15 04:30:47;;;;;;;1.30;1.25;;;;;;;2.79;82.65;102478.66;5140482;28;20439;-83
2022/01/15 04:33:18;;;;;;;3.35;3.15;;;;;;;2.82;83.03;102481.34;5130254;28;20037;-83
2022/01/15 04:35:48;;;;;;;1.33;1.33;;;;;;;2.85;82.88;102487.47;5143184;28;20038;-80
2022/01/15 04:38:19;;;;;;;1.80;1.70;;;;;;;2.91;82.41;102482.50;5124838;28;20046;-82
2022/01/15 04:40:50;;;;;;;1.10;1.10;;;;;;;2.83;83.33;102482.22;5123741;28;20034;-81
2022/01/15 04:43:20;;;;;;;2.55;2.35;;;;;;;2.88;82.70;102483.28;5140538;28;20053;-83
2022/01/15 04:45:51;;;;;;;1.98;1.88;;;;;;;2.92;82.88;102471.28;5129457;28;20054;-82
2022/01/15 04:48:22;;;;;;;2.05;1.95;;;;;;;2.73;83.03;102472.41;5141075;28;20034;-82
2022/01/15 04:50:53;;;;;;;4.43;4.13;;;;;;;2.94;82.41;102467.00;5133029;28;20061;-81
2022/01/15 04:53:24;;;;;;;2.05;1.95;;;;;;;2.95;82.33;102468.78;5118595;28;20026;-81
2022/01/15 04:55:55;;;;;;;2.85;2.65;;;;;;;2.90;82.28;102465.16;5111461;28;20124;-80
2022/01/15 04:58:27;;;;;;;0.95;0.95;;;;;;;2.92;82.74;102459.19;5115292;28;20026;-81
2022/01/15 05:01:00;;;;;;;0.43;0.43;;;;;;;2.93;82.67;102454.91;5124564;28;20050;-81
2022/01/15 05:03:35;;;;;;;0.60;0.60;;;;;;;2.98;82.24;102458.50;5135082;28;20093;-81
2022/01/15 05:06:05;;;;;;;0.80;0.80;;;;;;;2.98;81.94;102461.09;5145525;28;20034;-81
2022/01/15 05:08:41;;;;;;;1.77;1.67;;;;;;;2.94;82.49;102467.00;5112045;28;20099;-81
2022/01/15 05:11:27;;;;;;;1.50;1.50;;;;;;;2.98;82.37;102468.88;5149674;28;20034;-81
2022/01/15 05:13:58;;;;;;;0.75;0.75;;;;;;;2.93;82.73;102466.16;5116891;28;20553;-81
2022/01/15 05:16:29;;;;;;;0.98;0.98;;;;;;;2.97;82.36;102459.34;5127775;28;20133;-81
2022/01/15 05:18:59;;;;;;;3.30;2.22;;;;;;;2.95;82.63;102463.59;5127433;28;20038;-81
2022/01/15 05:21:30;;;;;;;0.90;0.90;;;;;;;2.94;82.59;102456.63;5106302;28;20046;-81
2022/01/15 05:24:01;;;;;;;1.70;1.50;;;;;;;2.99;82.32;102450.78;5132243;28;20030;-82
2022/01/15 05:26:35;;;;;;;1.80;1.70;;;;;;;2.98;82.03;102455.94;5113615;28;20398;-82
2022/01/15 05:29:06;;;;;;;1.55;1.50;;;;;;;3.01;82.25;102456.03;5109047;28;20034;-81
2022/01/15 05:31:37;;;;;;;0.90;0.90;;;;;;;2.92;83.09;102451.41;5112501;28;20042;-82
2022/01/15 05:34:08;;;;;;;1.33;1.23;;;;;;;2.95;83.10;102450.63;5132968;28;20037;-80
2022/01/15 05:36:39;;;;;;;0.85;0.85;;;;;;;2.93;82.52;102450.59;5108060;28;20545;-82
2022/01/15 05:39:12;;;;;;;1.00;1.00;;;;;;;2.95;83.12;102453.22;5118394;28;20030;-81
2022/01/15 05:41:43;;;;;;;0.57;0.57;;;;;;;2.94;82.58;102446.28;5148851;28;20042;-82
2022/01/15 05:44:13;;;;;;;3.45;3.17;;;;;;;3.00;82.12;102441.31;5113464;28;20042;-82
2022/01/15 05:46:45;;;;;;;2.25;2.15;;;;;;;3.09;82.81;102441.59;5118420;28;20043;-82
2022/01/15 05:49:18;;;;;;;3.50;3.20;;;;;;;2.77;83.44;102444.00;5113287;28;20030;-83
2022/01/15 05:51:49;;;;;;;3.30;3.05;;;;;;;2.81;82.70;102445.88;5139755;28;20057;-82
2022/01/15 05:54:19;;;;;;;0.65;0.65;;;;;;;2.92;82.59;102437.59;5145143;28;20027;-80
2022/01/15 05:56:52;;;;;;;1.35;1.30;;;;;;;2.89;81.95;102427.09;5108223;28;21434;-80
2022/01/15 05:59:23;;;;;;;0.88;0.88;;;;;;;2.93;82.25;102434.16;5117652;28;20405;-80
2022/01/15 06:01:56;;;;;;;2.28;2.08;;;;;;;2.92;82.37;102437.59;5113114;28;20102;-81
2022/01/15 06:04:29;;;;;;;5.40;2.60;;;;;;;2.91;82.10;102434.09;5114600;28;20062;-81
2022/01/15 06:06:59;;;;;;;0.82;0.82;;;;;;;2.82;82.46;102431.19;5101380;28;20187;-82
2022/01/15 06:09:30;;;;;;;0.98;0.98;;;;;;;2.93;82.52;102424.66;5133775;28;20030;-81
2022/01/15 06:12:01;;;;;;;1.88;0.90;;;;;;;2.80;82.05;102431.16;5114274;28;20042;-82
2022/01/15 06:14:32;;;;;;;1.02;1.02;;;;;;;2.85;81.95;102423.53;5117446;28;20057;-82
2022/01/15 06:17:04;;;;;;;1.55;1.50;;;;;;;2.66;82.61;102432.44;5140413;28;20038;-81
2022/01/15 06:19:40;;;;;;;2.67;1.33;;;;;;;2.66;83.26;102429.84;5130385;28;20489;-81
2022/01/15 06:22:12;;;;;;;0.45;0.45;;;;;;;2.69;83.16;102422.13;5111029;28;20072;-81
2022/01/15 06:24:43;;;;;;;1.15;1.05;;;;;;;2.57;83.02;102424.34;5115642;28;20033;-81
2022/01/15 06:27:16;;;;;;;2.20;2.00;;;;;;;2.59;83.22;102418.38;5114010;28;20049;-81
2022/01/15 06:29:47;;;;;;;1.30;1.30;;;;;;;2.72;82.30;102416.19;5111901;28;20575;-80
2022/01/15 06:32:17;;;;;;;4.50;1.80;;;;;;;2.70;82.58;102410.94;5101823;28;20058;-82
2022/01/15 06:34:48;;;;;;;0.90;0.90;;;;;;;2.78;82.63;102409.47;5127991;28;20031;-81
2022/01/15 06:40:24;;;;;;;1.50;1.40;;;;;;;2.76;81.82;102418.94;5123359;28;20030;-81
2022/01/15 06:43:00;;;;;;;1.38;1.33;;;;;;;2.68;82.40;102420.41;5129599;28;20045;-80
2022/01/15 06:45:32;;;;;;;0.63;0.63;;;;;;;2.38;82.82;102423.72;5123531;28;20054;-81
2022/01/15 06:48:03;;;;;;;0.40;0.40;;;;;;;2.48;83.32;102422.34;5110218;28;20049;-80
2022/01/15 06:50:48;;;;;;;4.43;3.00;;;;;;;2.24;83.65;102419.78;5274816;27;20501;-80
2022/01/15 06:53:29;;;;;;;1.65;1.55;;;;;;;2.32;83.70;102413.16;5205846;28;20037;-83
2022/01/15 06:56:00;;;;;;;2.08;1.98;;;;;;;2.44;82.83;102416.13;5195590;28;20035;-83
2022/01/15 06:58:31;;;;;;;1.10;1.08;;;;;;;2.47;83.11;102418.84;5182072;28;20026;-80
2022/01/15 07:01:01;;;;;;;0.50;0.50;;;;;;;2.52;82.51;102411.22;5194390;28;20028;-81
2022/01/15 07:03:35;;;;;;;2.05;1.95;;;;;;;2.56;82.02;102413.09;5236301;28;20067;-82
2022/01/15 07:06:05;;;;;;;;;;;;;;;2.51;82.72;102415.53;5225228;28;20053;-80
2022/01/15 07:08:36;;;;;;;1.00;1.00;;;;;;;2.58;82.94;102420.91;5204133;28;19917;-81
2022/01/15 07:11:07;;;;;;;1.33;1.33;;;;;;;2.39;83.01;102414.25;5163583;28;20115;-80
2022/01/15 07:13:37;;;;;;;1.63;1.30;;;;;;;2.53;82.60;102410.41;5192961;28;20018;-82
2022/01/15 07:16:08;;;;;;;2.03;1.92;;;;;;;2.39;83.05;102404.75;5223838;28;20041;-80
2022/01/15 07:18:38;;;;;;;1.02;1.02;;;;;;;2.43;82.71;102406.63;5208320;28;20079;-81
2022/01/15 07:21:10;;;;;;;1.30;1.23;;;;;;;2.39;82.54;102409.94;5245201;28;20090;-80
2022/01/15 07:23:40;;;;;;;0.82;0.82;;;;;;;2.42;82.78;102406.56;5221190;28;20029;-81
2022/01/15 07:26:11;;;;;;;1.48;1.38;;;;;;;2.45;82.20;102398.91;5205807;28;20047;-79
2022/01/15 07:28:42;;;;;;;1.00;1.00;;;;;;;2.39;82.04;102404.75;5200401;28;20049;-80
2022/01/15 07:31:12;;;;;;;1.70;1.58;;;;;;;2.31;83.27;102398.44;5191228;28;20500;-79
2022/01/15 07:33:43;;;;;;;2.25;2.15;;;;;;;2.35;83.13;102408.09;5201890;28;20590;-80
2022/01/15 07:36:15;;;;;;;2.88;2.67;;;;;;;2.39;82.40;102407.34;5223619;28;20165;-82
2022/01/15 07:38:45;;;;;;;1.00;1.00;;;;;;;2.34;82.48;102406.31;5249262;28;20025;-81
2022/01/15 07:41:16;;;;;;;3.10;1.75;;;;;;;2.34;82.67;102402.00;5253498;28;20033;-81
2022/01/15 07:43:46;;;;;;;2.40;2.15;;;;;;;2.44;81.75;102403.19;5184904;28;20195;-80
2022/01/15 07:46:17;;;;;;;2.90;2.70;;;;;;;2.42;82.24;102403.97;5215586;28;20037;-81
2022/01/15 07:48:48;;;;;;;0.77;0.77;;;;;;;2.29;82.85;102402.66;5222361;28;20029;-80
2022/01/15 07:51:18;;;;;;;2.03;1.88;;;;;;;2.34;82.65;102407.19;5194284;28;20149;-81
2022/01/15 07:53:52;;;;;;;0.77;0.77;;;;;;;2.28;82.54;102406.06;5168220;28;20400;-82
2022/01/15 07:56:23;;;;;;;2.42;1.70;;;;;;;2.29;83.13;102398.38;5169580;28;20045;-81
2022/01/15 07:58:53;;;;;;;0.70;0.70;;;;;;;2.15;84.61;102405.66;5185267;28;20838;-80
2022/01/15 08:01:24;;;;;;;1.63;1.52;;;;;;;2.29;83.04;102402.66;5165892;28;20044;-80
2022/01/15 08:03:54;;;;;;;0.40;0.40;;;;;;;2.42;82.55;102393.59;5177314;28;20200;-81
2022/01/15 08:06:25;;;;;;;1.73;1.63;;;;;;;2.25;83.01;102393.03;5200828;28;20040;-80
2022/01/15 08:08:56;;;;;;;1.52;1.42;;;;;;;2.20;83.66;102388.56;5182048;28;20089;-80
2022/01/15 08:11:30;;;;;;;0.70;0.70;;;;;;;2.31;82.86;102385.47;5171799;28;20042;-81
2022/01/15 08:14:01;;;;;;;2.00;1.90;;;;;;;2.25;83.24;102386.13;5223153;28;20030;-81
2022/01/15 08:16:32;;;;;;;0.65;0.65;;;;;;;2.40;82.71;102390.09;5204905;28;20138;-81
2022/01/15 08:19:05;;;;;;;0.88;0.88;;;;;;;2.59;82.64;102381.22;5239698;28;20044;-83
2022/01/15 08:21:48;;;;;;;7.22;2.53;;;;;;;2.51;82.29;102384.44;5173342;28;20046;-84
2022/01/15 08:24:21;;;;;;;0.70;0.70;;;;;;;2.49;82.35;102380.91;5171810;28;20032;-83
2022/01/15 08:26:52;;;;;;;0.93;0.93;;;;;;;2.41;83.32;102377.19;5186019;28;20040;-83
2022/01/15 08:29:30;;;;;;;1.00;0.95;;;;;;;2.50;82.76;102372.31;5192105;28;20065;-82
2022/01/15 08:32:02;;;;;;;0.80;0.80;;;;;;;2.28;83.04;102370.72;5217367;28;20045;-82
2022/01/15 08:34:38;;;;;;;1.45;1.42;;;;;;;2.50;82.98;102374.00;5187811;28;20021;-84
2022/01/15 08:37:09;;;;;;;0.98;0.98;;;;;;;2.39;82.74;102372.78;5198253;28;20428;-82
2022/01/15 08:39:40;;;;;;;0.75;0.75;;;;;;;2.51;82.51;102371.50;5176414;28;20045;-83
2022/01/15 08:42:28;;;;;;;1.27;1.25;;;;;;;2.50;82.60;102381.78;5187037;28;20071;-85
2022/01/15 08:45:07;;;;;;;0.80;0.80;;;;;;;2.47;83.63;102376.53;5212067;28;20060;-84
2022/01/15 08:47:50;;;;;;;0.47;0.47;;;;;;;2.62;82.56;102368.34;5189444;28;20037;-85
2022/01/15 08:50:24;;;;;;;0.75;0.75;;;;;;;2.64;82.47;102365.00;5202055;28;20038;-84
2022/01/15 08:52:57;;;;;;;1.08;1.08;;;;;;;2.68;82.38;102372.03;5181233;28;20049;-82
2022/01/15 08:55:31;;;;;;;0.70;0.70;;;;;;;2.71;82.75;102379.00;5170858;28;20034;-85
2022/01/15 08:58:02;;;;;;;0.65;0.65;;;;;;;2.58;83.06;102372.56;5176673;28;20028;-84
2022/01/15 09:00:33;;;;;;;1.67;1.58;;;;;;;2.60;82.70;102383.00;5216154;28;20293;-84
2022/01/15 09:03:07;;;;;;;2.15;2.00;;;;;;;2.74;82.17;102389.50;5174881;28;20033;-83
2022/01/15 09:05:51;;;;;;;1.13;1.02;;;;;;;2.73;82.20;102382.53;5197722;28;20686;-83
2022/01/15 09:08:25;;;;;;;1.42;1.42;;;;;;;2.66;82.62;102385.78;5198391;28;20632;-83
2022/01/15 09:10:55;;;;;;;0.82;0.82;;;;;;;2.76;82.86;102381.75;5187878;28;20050;-84
2022/01/15 09:13:27;;;;;;;0.85;0.85;;;;;;;2.82;82.51;102381.94;5200938;28;20024;-83
2022/01/15 09:15:58;;;;;;;1.58;1.48;;;;;;;2.44;83.29;102381.59;5203064;28;20349;-83
2022/01/15 09:18:31;;;;;;;0.47;0.47;;;;;;;2.61;83.26;102379.53;5173158;28;20029;-83
2022/01/15 09:21:05;;;;;;;0.82;0.82;;;;;;;2.65;83.18;102381.41;5188508;28;20128;-83
2022/01/15 09:23:49;;;;;;;4.03;1.85;;;;;;;2.67;82.51;102371.97;5189267;28;20014;-83
2022/01/15 09:26:45;;;;;;;1.63;1.52;;;;;;;2.62;82.78;102371.84;5180240;28;20041;-82
2022/01/15 09:32:07;;;;;;;2.80;2.25;;;;;;;2.56;83.54;102358.69;5223443;28;20045;-83
2022/01/15 09:34:39;;;;;;;0.90;0.90;;;;;;;2.78;82.69;102365.41;5211229;28;20041;-84
2022/01/15 09:37:09;;;;;;;0.60;0.52;;;;;;;2.75;82.77;102362.75;5197135;28;20101;-83
2022/01/15 09:39:42;;;;;;;0.57;0.57;;;;;;;2.71;82.77;102353.09;5177549;28;20488;-82
2022/01/15 09:42:15;;;;;;;0.80;0.80;;;;;;;2.72;83.18;102349.66;5170502;28;20044;-83
2022/01/15 09:44:48;;;;;;;2.42;1.20;;;;;;;2.85;82.75;102347.47;5203343;28;20037;-84
2022/01/15 09:47:21;;;;;;;0.57;0.57;;;;;;;2.88;82.94;102347.56;5197512;28;20040;-83
2022/01/15 09:49:56;;;;;;;0.73;0.73;;;;;;;2.95;82.86;102344.31;5209889;28;20025;-83
2022/01/15 09:52:30;;;;;;;1.33;1.30;;;;;;;2.95;82.70;102345.22;5228958;28;20045;-84
2022/01/15 09:55:16;;;;;;;0.80;0.80;;;;;;;2.94;82.85;102343.44;5176491;28;20692;-84
2022/01/15 09:57:46;;;;;;;1.45;1.35;;;;;;;2.86;83.20;102344.94;5197225;28;20044;-83
2022/01/15 10:00:19;;;;;;;1.73;1.63;;;;;;;2.88;83.69;102335.50;5183523;28;20033;-84
2022/01/15 10:02:55;;;;;;;0.73;0.73;;;;;;;2.97;82.90;102333.19;5177671;28;20089;-83
2022/01/15 10:05:26;;;;;;;0.93;0.93;;;;;;;2.94;83.32;102327.00;5222490;28;20037;-83
2022/01/15 10:08:09;;;;;;;2.20;1.75;;;;;;;2.77;84.12;102327.34;5180332;28;20033;-83
2022/01/15 10:10:49;;;;;;;0.65;0.65;;;;;;;2.77;83.98;102314.38;5169539;28;20563;-83
2022/01/15 10:13:24;;;;;;;0.80;0.80;;;;;;;2.82;84.20;102307.66;5184097;28;20033;-83
2022/01/15 10:15:56;;;;;;;;;;;;;;;2.82;83.70;102314.53;5169179;28;20057;-82
2022/01/15 10:18:45;;;;;;;;;;;;;;;;;;;;;
2022/01/15 10:21:32;;;;;;;1.42;1.35;;;;;;;3.02;83.60;102303.91;5222839;28;20058;-83
2022/01/15 10:24:08;;;;;;;0.40;0.40;;;;;;;3.02;82.57;102306.50;5212582;28;20021;-83
2022/01/15 10:26:48;;;;;;;1.45;1.35;;;;;;;3.07;83.13;102318.75;5179203;28;20059;-83
2022/01/15 10:29:23;;;;;;;;;;;;;;;2.92;83.80;102319.19;5194321;28;20026;-81
2022/01/15 10:31:54;;;;;;;2.72;2.13;;;;;;;3.02;83.48;102315.13;5216519;28;19916;-82
2022/01/15 10:34:29;;;;;;;0.60;0.60;;;;;;;3.05;82.98;102319.56;5209579;28;20045;-83
2022/01/15 10:37:10;;;;;;;1.42;1.35;;;;;;;3.05;82.75;102319.56;5204577;28;20729;-83
2022/01/15 10:39:54;;;;;;;1.45;1.38;;;;;;;3.05;82.86;102316.97;5186758;28;20033;-83
2022/01/15 10:42:31;;;;;;;;;;;;;;;3.15;82.41;102319.88;5193985;28;20053;-87
2022/01/15 10:45:19;;;;;;;1.13;1.13;;;;;;;3.00;83.71;102316.81;5158969;28;19939;-86
2022/01/15 10:47:56;;;;;;;1.00;1.00;;;;;;;3.12;83.00;102306.81;5161176;28;20073;-83
2022/01/15 10:50:35;;;;;;;1.13;1.10;;;;;;;3.22;82.99;102305.38;5145835;28;20035;-81
2022/01/15 10:53:11;;;;;;;0.73;0.73;;;;;;;3.16;83.77;102307.78;5184245;28;20021;-82
2022/01/15 10:55:43;;;;;;;1.33;1.23;;;;;;;3.21;83.42;102297.53;5175092;28;20037;-81
2022/01/15 10:58:14;;;;;;;1.58;1.48;;;;;;;3.09;83.40;102306.72;5198285;28;20202;-83
2022/01/15 11:01:15;;;;;;;;;;;;;;;;;;;;;
2022/01/15 11:04:21;;;;;;;;;;;;;;;;;;;;;
2022/01/15 11:06:52;;;;;;;1.40;1.40;;;;;;;3.21;83.24;102301.03;5187639;28;20089;-83
2022/01/15 11:09:46;;;;;;;0.82;0.82;;;;;;;3.27;83.67;102301.19;5176765;28;20034;-83
2022/01/15 11:12:18;;;;;;;1.08;1.08;;;;;;;3.40;82.25;102297.22;5211594;28;20041;-82
2022/01/15 11:14:49;;;;;;;0.77;0.77;;;;;;;3.49;82.54;102293.13;5210651;28;20037;-80
2022/01/15 11:17:19;;;;;;;1.10;1.10;;;;;;;3.48;82.34;102300.00;5214760;28;20056;-85
2022/01/15 11:19:52;;;;;;;0.88;0.88;;;;;;;3.36;82.58;102289.31;5177807;28;20058;-81
2022/01/15 11:22:26;;;;;;;0.82;0.82;;;;;;;3.44;82.65;102291.25;5169150;28;20038;-81
2022/01/15 11:24:59;;;;;;;1.77;1.67;;;;;;;3.36;82.68;102292.78;5170070;28;20026;-82
2022/01/15 11:27:34;;;;;;;0.90;0.90;;;;;;;3.51;83.08;102291.47;5165226;28;20125;-82
2022/01/15 11:30:07;;;;;;;1.70;1.63;;;;;;;3.73;82.84;102291.19;5177292;28;20030;-84
2022/01/15 11:36:27;;;;;;;0.82;0.82;;;;;;;3.68;82.70;102281.53;5207835;28;20030;-81
2022/01/15 11:38:58;;;;;;;0.75;0.75;;;;;;;3.70;82.32;102280.72;5201206;28;20040;-80
2022/01/15 11:41:29;;;;;;;11.70;2.67;;;;;;;3.76;81.96;102273.09;5193441;28;20049;-82
2022/01/15 11:44:04;;;;;;;0.95;0.95;;;;;;;3.81;82.64;102267.16;5195666;28;20029;-82
2022/01/15 11:46:44;;;;;;;1.08;1.08;;;;;;;3.78;82.91;102268.81;5177701;28;20048;-82
2022/01/15 11:49:23;;;;;;;0.75;0.75;;;;;;;3.86;82.83;102269.03;5215465;28;20113;-83
2022/01/15 11:52:00;;;;;;;1.63;1.60;;;;;;;3.91;82.66;102263.94;5217873;28;20065;-83
2022/01/15 11:54:32;;;;;;;1.05;1.05;;;;;;;3.91;82.13;102259.63;5196108;28;20124;-85
2022/01/15 11:57:04;;;;;;;1.45;1.35;;;;;;;3.99;82.03;102253.75;5184319;28;20114;-85
2022/01/15 11:59:35;;;;;;;1.08;1.08;;;;;;;3.96;81.80;102266.66;5208565;28;20376;-84
2022/01/15 12:02:27;;;;;;;0.43;0.43;;;;;;;3.94;82.18;102266.59;5171315;28;20054;-83
2022/01/15 12:05:19;;;;;;;1.02;1.02;;;;;;;4.04;82.29;102250.41;5221450;28;20033;-84
2022/01/15 12:07:59;;;;;;;0.63;0.63;;;;;;;4.02;82.11;102249.50;5202580;28;20563;-82
2022/01/15 12:10:49;;;;;;;1.20;1.20;;;;;;;4.12;81.75;102244.53;5209103;28;20031;-82
2022/01/15 12:13:23;;;;;;;0.93;0.93;;;;;;;3.94;81.95;102241.53;5175898;28;20041;-84
2022/01/15 12:16:28;;;;;;;0.85;0.85;;;;;;;3.96;80.68;102231.16;5178577;28;20048;-85
2022/01/15 12:19:08;;;;;;;2.20;2.03;;;;;;;3.98;81.75;102228.59;5213388;28;20022;-85
2022/01/15 12:21:57;;;;;;;0.57;0.57;;;;;;;3.94;82.01;102231.13;5166630;28;20037;-85
2022/01/15 12:24:40;;;;;;;2.22;2.08;;;;;;;3.97;81.65;102219.94;5156440;28;20022;-82
2022/01/15 12:27:15;;;;;;;0.63;0.63;;;;;;;3.89;82.28;102218.88;5188842;28;20045;-84
2022/01/15 12:29:48;;;;;;;2.10;2.00;;;;;;;4.02;81.58;102200.16;5204487;28;20112;-84
2022/01/15 12:32:42;;;;;;;1.05;1.00;;;;;;;3.82;81.83;102186.69;5169754;28;20033;-83
2022/01/15 12:35:22;;;;;;;0.88;0.88;;;;;;;3.83;81.10;102182.38;5150758;28;20029;-82
2022/01/15 12:38:05;;;;;;;1.20;1.20;;;;;;;3.85;80.79;102188.47;5167479;28;20053;-82